Willis, Virginia
Current Conditions -  °F | °C
As of 5:15 PM on Friday 24 Oct 2014 (Local Time) from KHLX Reporting Station
Clear Clear  
Wind Chill: 62°   Ceiling: Unl
Heat Index: 62°   Visibility: 10mi
Dew Point: 33°   Wind: 6mph
Humidity: 34%   Direction: 330°NNW
Pressure: 30.02"   Gusts: NA
Location:  36.85°N, 80.48°W
Report Text: KHLX 242115Z AUTO 33005KT 10SM CLR 17/01 A3002 RMK AO2 T01650006
Loading
Personal Weather Stations






























Interactive Weather Map
Tropical Storm Tracking
New forecast layout! Learn more

10-Day Weather Forecast

Advertisements
Track Severe Weather on mobile